Time;durP1;ratioP1;P1;durP2;ratioP2;P2;SDS_P1;SDS_P2;PMS_P1;PMS_P2;Temp;Humidity;BMP_temperature;BMP_pressure;BME280_temperature;BME280_humidity;BME280_pressure;Samples;Min_cycle;Max_cycle;Signal;HPM_P1;HPM_P2
2023/10/07 00:02:12;;;;;;;10.53;9.70;;;13.40;99.90;;;;;;4893583;29;20463;-86
2023/10/07 00:04:44;;;;;;;10.10;9.20;;;13.40;99.90;;;;;;4894382;29;20471;-85
2023/10/07 00:07:14;;;;;;;10.40;9.60;;;13.40;99.90;;;;;;4894542;29;20511;-86
2023/10/07 00:09:44;;;;;;;9.60;8.80;;;13.40;99.90;;;;;;4885817;29;20503;-88
2023/10/07 00:12:13;;;;;;;9.70;9.00;;;13.30;99.90;;;;;;4909208;29;20979;-87
2023/10/07 00:14:43;;;;;;;9.50;8.90;;;13.30;99.90;;;;;;4895076;29;20469;-86
2023/10/07 00:17:16;;;;;;;9.77;8.93;;;13.40;99.90;;;;;;4890163;29;20483;-86
2023/10/07 00:19:55;;;;;;;9.00;8.40;;;13.40;99.90;;;;;;4906618;29;20527;-86
2023/10/07 00:22:26;;;;;;;11.37;10.30;;;13.40;99.90;;;;;;4896141;29;20459;-86
2023/10/07 00:25:19;;;;;;;9.80;9.07;;;13.30;99.90;;;;;;4895449;29;20456;-86
2023/10/07 00:27:48;;;;;;;9.73;8.93;;;13.30;99.90;;;;;;4894827;29;20621;-86
2023/10/07 00:30:20;;;;;;;10.33;9.40;;;13.30;99.90;;;;;;4892239;29;20455;-87
2023/10/07 00:32:50;;;;;;;9.97;9.17;;;13.30;99.90;;;;;;4898334;29;20493;-87
2023/10/07 00:35:20;;;;;;;10.37;9.60;;;13.30;99.90;;;;;;4892632;29;20470;-87
2023/10/07 00:37:48;;;;;;;9.20;8.50;;;13.30;99.90;;;;;;4896316;29;20525;-86
2023/10/07 00:40:31;;;;;;;8.53;7.83;;;13.30;99.90;;;;;;4896813;29;20495;-87
2023/10/07 00:42:59;;;;;;;8.70;8.00;;;13.20;99.90;;;;;;4899028;29;20467;-86
2023/10/07 00:45:28;;;;;;;8.80;8.20;;;13.20;99.90;;;;;;4889056;29;20475;-86
2023/10/07 00:48:02;;;;;;;9.97;9.00;;;13.10;99.90;;;;;;4895234;29;20495;-85
2023/10/07 00:50:30;;;;;;;11.73;9.17;;;13.10;99.90;;;;;;4894955;29;20471;-85
2023/10/07 00:52:59;;;;;;;8.23;7.63;;;13.00;99.90;;;;;;4894704;29;20487;-86
2023/10/07 00:55:34;;;;;;;8.50;7.80;;;13.00;99.90;;;;;;4893954;29;20451;-87
2023/10/07 00:58:11;;;;;;;8.83;8.13;;;13.00;99.90;;;;;;4889250;29;20598;-84
2023/10/07 01:00:46;;;;;;;8.97;8.27;;;13.00;99.90;;;;;;4885864;29;20474;-87
2023/10/07 01:03:31;;;;;;;9.00;8.40;;;13.00;99.90;;;;;;4890599;29;20930;-86
2023/10/07 01:06:11;;;;;;;9.27;8.77;;;13.00;99.90;;;;;;4892715;29;20466;-86
2023/10/07 01:08:44;;;;;;;9.37;8.70;;;12.90;99.90;;;;;;4891303;29;20483;-86
2023/10/07 01:11:23;;;;;;;9.90;9.03;;;13.00;99.90;;;;;;4893473;29;20455;-86
2023/10/07 01:13:56;;;;;;;9.03;8.47;;;12.90;99.90;;;;;;4893341;29;20544;-86
2023/10/07 01:16:34;;;;;;;10.40;9.60;;;12.90;99.90;;;;;;4894168;29;21223;-85
2023/10/07 01:19:18;;;;;;;10.20;9.30;;;12.90;99.90;;;;;;4892429;29;20870;-84
2023/10/07 01:21:55;;;;;;;9.63;9.00;;;13.00;99.90;;;;;;4894356;29;20470;-84
2023/10/07 01:24:49;;;;;;;9.37;8.57;;;13.00;99.90;;;;;;4891966;29;20494;-85
2023/10/07 01:27:34;;;;;;;10.13;9.23;;;12.90;99.90;;;;;;4892896;29;21011;-85
2023/10/07 01:30:07;;;;;;;9.53;8.93;;;12.80;99.90;;;;;;4892163;29;20463;-86
2023/10/07 01:32:48;;;;;;;9.73;8.83;;;12.80;99.90;;;;;;4894864;29;20451;-85
2023/10/07 01:35:25;;;;;;;9.00;8.40;;;12.80;99.90;;;;;;4889908;29;20538;-85
2023/10/07 01:37:59;;;;;;;10.23;9.43;;;12.80;99.90;;;;;;4892209;29;20850;-87
2023/10/07 01:40:52;;;;;;;11.00;10.10;;;12.80;99.90;;;;;;4898298;29;20469;-86
2023/10/07 01:43:20;;;;;;;8.80;8.23;;;12.70;99.90;;;;;;4897550;29;20444;-85
2023/10/07 01:45:52;;;;;;;9.77;8.90;;;12.60;99.90;;;;;;4896558;29;20519;-86
2023/10/07 01:48:20;;;;;;;8.70;8.10;;;12.60;99.90;;;;;;4896764;29;20578;-86
2023/10/07 01:50:50;;;;;;;9.77;8.97;;;12.60;99.90;;;;;;4897991;29;20533;-84
2023/10/07 01:53:18;;;;;;;10.00;9.20;;;12.60;99.90;;;;;;4897616;29;20941;-84
2023/10/07 01:55:48;;;;;;;8.80;8.30;;;12.60;99.90;;;;;;4895725;29;20476;-84
2023/10/07 01:58:19;;;;;;;10.10;9.20;;;12.60;99.90;;;;;;4896716;29;21306;-84
2023/10/07 02:00:51;;;;;;;9.90;9.20;;;12.50;99.90;;;;;;4898937;29;20462;-84
2023/10/07 02:03:23;;;;;;;9.10;8.47;;;12.50;99.90;;;;;;4897022;29;20466;-84
2023/10/07 02:05:52;;;;;;;9.13;8.53;;;12.50;99.90;;;;;;4894285;29;20846;-85
2023/10/07 02:08:25;;;;;;;9.73;8.83;;;12.50;99.90;;;;;;4893049;29;20518;-84
2023/10/07 02:11:06;;;;;;;10.47;9.50;;;12.40;99.90;;;;;;4897316;29;20459;-85
2023/10/07 02:13:35;;;;;;;9.13;8.43;;;12.40;99.90;;;;;;4898961;29;20471;-85
2023/10/07 02:16:07;;;;;;;10.37;9.33;;;12.40;99.90;;;;;;4896788;29;20451;-85
2023/10/07 02:18:35;;;;;;;9.73;9.07;;;12.40;99.90;;;;;;4897038;29;20487;-85
2023/10/07 02:21:08;;;;;;;9.93;9.17;;;12.40;99.90;;;;;;4890729;29;20459;-86
2023/10/07 02:23:40;;;;;;;8.90;8.40;;;12.40;99.90;;;;;;4896967;29;20455;-86
2023/10/07 02:26:16;;;;;;;10.00;9.20;;;12.40;99.90;;;;;;4898466;29;20486;-85
2023/10/07 02:28:45;;;;;;;9.67;8.87;;;12.40;99.90;;;;;;4896214;29;20534;-85
2023/10/07 02:31:16;;;;;;;9.33;8.73;;;12.30;99.90;;;;;;4896248;29;20491;-85
2023/10/07 02:33:46;;;;;;;9.43;8.70;;;12.40;99.90;;;;;;4895476;29;20478;-84
2023/10/07 02:36:28;;;;;;;9.83;9.20;;;12.40;99.90;;;;;;4895450;29;21090;-87
2023/10/07 02:38:56;;;;;;;9.80;9.07;;;12.40;99.90;;;;;;4897412;29;20486;-87
2023/10/07 02:41:26;;;;;;;10.50;9.60;;;12.30;99.90;;;;;;4894682;29;20478;-87
2023/10/07 02:43:55;;;;;;;10.20;9.50;;;12.30;99.90;;;;;;4892598;29;20467;-87
2023/10/07 02:46:31;;;;;;;10.30;9.50;;;12.20;99.90;;;;;;4897046;29;21301;-88
2023/10/07 02:49:09;;;;;;;9.67;8.90;;;12.30;99.90;;;;;;4898567;29;20861;-86
2023/10/07 02:51:45;;;;;;;8.87;8.30;;;12.30;99.90;;;;;;4895605;29;20463;-87
2023/10/07 02:54:18;;;;;;;9.90;9.20;;;12.30;99.90;;;;;;4894214;29;20541;-87
2023/10/07 02:56:56;;;;;;;8.97;8.20;;;12.30;99.90;;;;;;4893935;29;20521;-87
2023/10/07 02:59:27;;;;;;;9.00;8.37;;;12.20;99.90;;;;;;4895531;29;20562;-87
2023/10/07 03:04:42;;;;;;;9.90;9.10;;;12.10;99.90;;;;;;4908809;29;20463;-87
2023/10/07 03:07:15;;;;;;;9.70;8.90;;;12.10;99.90;;;;;;4896861;29;20486;-87
2023/10/07 03:09:51;;;;;;;9.50;8.80;;;12.10;99.90;;;;;;4895555;29;20465;-87
2023/10/07 03:12:27;;;;;;;9.07;8.40;;;12.00;99.90;;;;;;4894115;29;20550;-88
2023/10/07 03:14:58;;;;;;;9.23;8.47;;;12.00;99.90;;;;;;4893053;29;20535;-86
2023/10/07 03:17:39;;;;;;;9.23;8.60;;;12.10;99.90;;;;;;4898240;29;20482;-86
2023/10/07 03:25:55;;;;;;;8.77;8.13;;;12.00;99.90;;;;;;4890686;29;20466;-86
2023/10/07 03:28:34;;;;;;;9.63;8.93;;;11.70;99.90;;;;;;4895469;29;20498;-86
2023/10/07 03:31:08;;;;;;;9.63;8.83;;;11.70;99.90;;;;;;4896644;29;20526;-87
2023/10/07 03:33:44;;;;;;;9.40;8.70;;;11.80;99.90;;;;;;4895845;29;20973;-86
2023/10/07 03:39:16;;;;;;;9.53;8.53;;;12.00;99.90;;;;;;4895833;29;20584;-86
2023/10/07 03:41:47;;;;;;;9.67;8.97;;;12.10;99.90;;;;;;4897589;29;20447;-87
2023/10/07 03:44:18;;;;;;;9.47;8.87;;;12.00;99.90;;;;;;4896311;29;20554;-86
2023/10/07 03:46:48;;;;;;;11.20;10.20;;;12.00;99.90;;;;;;4895606;29;20464;-86
2023/10/07 03:49:21;;;;;;;10.17;9.37;;;11.90;99.90;;;;;;4897648;29;20491;-87
2023/10/07 03:51:59;;;;;;;9.40;8.70;;;12.00;99.90;;;;;;4891393;29;20889;-86
2023/10/07 03:54:30;;;;;;;9.33;8.70;;;12.10;99.90;;;;;;4890439;29;20488;-86
2023/10/07 03:57:00;;;;;;;8.67;8.10;;;12.00;99.90;;;;;;4892751;29;21916;-87
2023/10/07 03:59:31;;;;;;;8.90;8.40;;;11.90;99.90;;;;;;4894717;29;20459;-86
2023/10/07 04:02:00;;;;;;;9.80;9.00;;;11.80;99.90;;;;;;4894534;29;20462;-86
2023/10/07 04:04:29;;;;;;;8.77;8.07;;;11.70;99.90;;;;;;4892230;29;20459;-87
2023/10/07 04:07:00;;;;;;;10.13;9.33;;;11.80;99.90;;;;;;4896337;29;20475;-87
2023/10/07 04:09:33;;;;;;;8.50;8.00;;;11.80;99.90;;;;;;4896742;29;20499;-87
2023/10/07 04:12:02;;;;;;;10.00;9.07;;;11.80;99.90;;;;;;4895572;29;20462;-87
2023/10/07 04:14:35;;;;;;;10.30;9.40;;;11.70;99.90;;;;;;4898711;29;20466;-85
2023/10/07 04:17:11;;;;;;;9.60;8.70;;;11.70;99.90;;;;;;4901335;29;20509;-86
2023/10/07 04:19:42;;;;;;;9.03;8.30;;;11.70;99.90;;;;;;4896337;29;20454;-87
2023/10/07 04:22:11;;;;;;;9.03;8.43;;;11.60;99.90;;;;;;4895560;29;20454;-86
2023/10/07 04:24:44;;;;;;;10.33;9.53;;;11.60;99.90;;;;;;4890185;29;20456;-86
2023/10/07 04:27:19;;;;;;;10.00;9.30;;;11.60;99.90;;;;;;4892145;29;20536;-86
2023/10/07 04:29:53;;;;;;;8.87;8.23;;;11.60;99.90;;;;;;4888922;29;20499;-86
2023/10/07 04:32:22;;;;;;;9.27;8.67;;;11.60;99.90;;;;;;4896333;29;20447;-86
2023/10/07 04:35:16;;;;;;;8.47;7.87;;;11.60;99.90;;;;;;4894263;29;20475;-87
2023/10/07 04:37:52;;;;;;;9.10;8.50;;;11.70;99.90;;;;;;4895307;29;20569;-87
2023/10/07 04:43:48;;;;;;;9.33;8.63;;;11.80;99.90;;;;;;4892323;29;20463;-86
2023/10/07 04:46:23;;;;;;;9.80;8.87;;;11.70;99.90;;;;;;4895119;29;20536;-86
2023/10/07 04:48:58;;;;;;;9.13;8.37;;;11.70;99.90;;;;;;4891839;29;20501;-89
2023/10/07 04:54:11;;;;;;;8.73;8.07;;;11.60;99.90;;;;;;4895158;29;20459;-88
2023/10/07 04:56:39;;;;;;;9.10;8.30;;;11.60;99.90;;;;;;4896209;29;20525;-88
2023/10/07 04:59:09;;;;;;;9.13;8.33;;;11.70;99.90;;;;;;4894928;29;20483;-90
2023/10/07 05:01:41;;;;;;;9.57;8.90;;;11.70;99.90;;;;;;4892420;29;20463;-88
2023/10/07 05:04:15;;;;;;;8.90;8.20;;;11.60;99.90;;;;;;4894080;29;20455;-86
2023/10/07 05:06:43;;;;;;;8.43;7.93;;;11.60;99.90;;;;;;4895383;29;21092;-86
2023/10/07 05:09:18;;;;;;;9.20;8.50;;;11.60;99.90;;;;;;4894533;29;20456;-87
2023/10/07 05:11:47;;;;;;;8.73;8.13;;;11.20;99.90;;;;;;4892911;29;20464;-86
2023/10/07 05:14:17;;;;;;;7.80;7.40;;;11.30;99.90;;;;;;4899956;29;20191;-86
2023/10/07 05:16:46;;;;;;;8.23;7.63;;;11.40;99.90;;;;;;4898722;29;20531;-86
2023/10/07 05:19:22;;;;;;;8.00;7.50;;;11.40;99.90;;;;;;4897723;29;20463;-86
2023/10/07 05:22:04;;;;;;;9.03;8.07;;;11.30;99.90;;;;;;4899257;29;20450;-85
2023/10/07 05:24:33;;;;;;;9.10;8.30;;;11.30;99.90;;;;;;4899213;29;21038;-85
2023/10/07 05:27:04;;;;;;;9.03;8.40;;;11.30;99.90;;;;;;4895886;29;20477;-84
2023/10/07 05:29:35;;;;;;;8.87;8.30;;;11.30;99.90;;;;;;4896916;29;20555;-84
2023/10/07 05:32:06;;;;;;;9.02;8.32;;;11.40;99.90;;;;;;4900387;29;20994;-90
2023/10/07 05:34:35;;;;;;;8.50;7.80;;;11.30;99.90;;;;;;4896487;29;20195;-89
2023/10/07 05:37:11;;;;;;;9.23;8.60;;;11.30;99.90;;;;;;4896287;29;20482;-83
2023/10/07 05:39:41;;;;;;;10.33;9.47;;;11.30;99.90;;;;;;4898144;29;20478;-86
2023/10/07 05:42:11;;;;;;;8.73;8.13;;;11.40;99.90;;;;;;4899485;29;20547;-86
2023/10/07 05:44:40;;;;;;;8.33;7.73;;;11.40;99.90;;;;;;4893468;29;20462;-87
2023/10/07 05:47:10;;;;;;;8.70;8.13;;;11.30;99.90;;;;;;4900058;29;20601;-86
2023/10/07 05:49:38;;;;;;;9.10;8.40;;;11.40;99.90;;;;;;4896831;29;20509;-87
2023/10/07 05:52:07;;;;;;;9.23;8.43;;;11.40;99.90;;;;;;4896945;29;20546;-86
2023/10/07 05:54:35;;;;;;;10.03;8.70;;;11.40;99.90;;;;;;4898207;29;20934;-87
2023/10/07 05:57:05;;;;;;;12.47;9.93;;;11.40;99.90;;;;;;4896950;29;20487;-85
2023/10/07 05:59:33;;;;;;;8.93;8.40;;;11.50;99.90;;;;;;4898270;29;20541;-86
2023/10/07 06:02:05;;;;;;;8.80;8.00;;;11.40;99.90;;;;;;4899279;29;20455;-86
2023/10/07 06:04:37;;;;;;;7.70;7.20;;;11.30;99.90;;;;;;4893630;29;20451;-89
2023/10/07 06:07:07;;;;;;;8.70;8.10;;;11.40;99.90;;;;;;4896941;29;20443;-89
2023/10/07 06:09:37;;;;;;;8.67;7.97;;;11.40;99.90;;;;;;4890718;29;20521;-79
2023/10/07 06:12:07;;;;;;;9.80;8.87;;;11.30;99.90;;;;;;4890796;29;20459;-77
2023/10/07 06:14:36;;;;;;;8.70;8.10;;;11.40;99.90;;;;;;4891456;29;20471;-77
2023/10/07 06:17:06;;;;;;;8.40;7.90;;;11.30;99.90;;;;;;4887963;29;20547;-77
2023/10/07 06:19:35;;;;;;;8.43;7.80;;;11.40;99.90;;;;;;4888846;29;20898;-77
2023/10/07 06:22:11;;;;;;;10.27;9.47;;;11.50;99.90;;;;;;4893433;29;20957;-81
2023/10/07 06:24:41;;;;;;;10.40;9.40;;;11.60;99.90;;;;;;4889435;29;20996;-82
2023/10/07 06:27:12;;;;;;;9.40;8.70;;;11.50;99.90;;;;;;4886508;29;20530;-83
2023/10/07 06:29:43;;;;;;;9.10;8.30;;;11.60;99.90;;;;;;4890790;29;20473;-82
2023/10/07 06:32:23;;;;;;;10.13;9.40;;;11.70;99.90;;;;;;4892786;29;20522;-82
2023/10/07 06:34:54;;;;;;;9.50;8.70;;;11.70;99.90;;;;;;4892172;29;20476;-82
2023/10/07 06:37:28;;;;;;;9.57;8.67;;;11.80;99.90;;;;;;4892591;29;20502;-83
2023/10/07 06:40:00;;;;;;;9.53;8.93;;;11.70;99.90;;;;;;4889463;29;20459;-81
2023/10/07 06:42:29;;;;;;;8.50;8.00;;;11.70;99.90;;;;;;4888942;29;20471;-82
2023/10/07 06:45:02;;;;;;;9.70;8.90;;;11.70;99.90;;;;;;4890697;29;20996;-83
2023/10/07 06:47:32;;;;;;;8.80;8.10;;;11.60;99.90;;;;;;4894004;29;20482;-84
2023/10/07 06:50:02;;;;;;;9.10;8.50;;;11.70;99.90;;;;;;4898046;29;20455;-80
2023/10/07 06:52:33;;;;;;;10.40;9.70;;;11.90;99.90;;;;;;4892786;29;20469;-79
2023/10/07 06:55:02;;;;;;;10.13;9.27;;;12.00;99.90;;;;;;4881533;29;20983;-79
2023/10/07 06:57:38;;;;;;;10.17;9.13;;;12.10;99.90;;;;;;4885952;29;20491;-80
2023/10/07 07:00:09;;;;;;;9.80;8.90;;;12.30;99.90;;;;;;4887311;29;20459;-80
2023/10/07 07:02:37;;;;;;;10.27;9.50;;;12.40;99.90;;;;;;4888131;29;20467;-75
2023/10/07 07:05:15;;;;;;;10.47;9.77;;;12.60;99.90;;;;;;4886489;29;20502;-75
2023/10/07 07:07:45;;;;;;;12.13;11.23;;;12.90;99.90;;;;;;4886461;29;20452;-81
2023/10/07 07:10:16;;;;;;;9.60;9.10;;;12.70;99.90;;;;;;4887353;29;20758;-80
2023/10/07 07:12:45;;;;;;;11.03;10.20;;;12.90;99.90;;;;;;4889739;29;20486;-80
2023/10/07 07:15:26;;;;;;;10.00;9.40;;;13.00;99.90;;;;;;4889704;29;20562;-79
2023/10/07 07:18:05;;;;;;;10.47;9.57;;;13.10;99.90;;;;;;4890008;29;20487;-79
2023/10/07 07:20:48;;;;;;;10.20;9.40;;;13.10;99.90;;;;;;4882331;29;20562;-79
2023/10/07 07:23:21;;;;;;;10.37;9.57;;;13.20;99.90;;;;;;4890298;29;20495;-79
2023/10/07 07:25:59;;;;;;;10.63;9.63;;;13.20;99.90;;;;;;4887435;29;20478;-83
2023/10/07 07:28:27;;;;;;;10.70;9.80;;;13.30;99.90;;;;;;4891000;29;20487;-80
2023/10/07 07:30:57;;;;;;;10.50;9.70;;;13.40;99.90;;;;;;4890856;29;21016;-81
2023/10/07 07:33:29;;;;;;;10.80;10.10;;;13.50;99.90;;;;;;4891527;29;20467;-80
2023/10/07 07:35:57;;;;;;;10.53;9.90;;;13.80;99.90;;;;;;4888788;29;20473;-79
2023/10/07 07:38:29;;;;;;;10.97;10.13;;;14.30;99.90;;;;;;4890491;29;20498;-81
2023/10/07 07:41:09;;;;;;;10.47;9.73;;;14.80;99.90;;;;;;4891130;29;20463;-81
2023/10/07 07:43:39;;;;;;;10.27;9.50;;;15.10;99.90;;;;;;4889501;29;20463;-79
2023/10/07 07:46:18;;;;;;;9.80;9.13;;;15.50;99.90;;;;;;4889606;29;20464;-80
2023/10/07 07:48:47;;;;;;;10.47;9.67;;;15.70;99.90;;;;;;4889422;29;20651;-80
2023/10/07 07:51:17;;;;;;;9.57;8.87;;;15.70;99.90;;;;;;4889703;29;20459;-81
2023/10/07 07:53:47;;;;;;;10.17;9.47;;;15.60;99.90;;;;;;4889846;29;20459;-81
2023/10/07 07:56:16;;;;;;;10.30;9.60;;;15.70;99.90;;;;;;4896749;29;20454;-79
2023/10/07 07:58:47;;;;;;;9.40;8.60;;;15.80;99.90;;;;;;4889688;29;20503;-82
2023/10/07 08:01:18;;;;;;;10.30;9.47;;;15.80;99.90;;;;;;4889673;29;20471;-81
2023/10/07 08:03:47;;;;;;;9.30;8.73;;;16.00;99.90;;;;;;4890321;29;20482;-81
2023/10/07 08:06:21;;;;;;;9.90;9.30;;;16.30;99.90;;;;;;4889360;29;20467;-81
2023/10/07 08:08:53;;;;;;;11.23;10.13;;;16.90;99.90;;;;;;4891369;29;20921;-81
2023/10/07 08:11:22;;;;;;;11.03;10.30;;;17.60;99.90;;;;;;4891653;29;21040;-82
2023/10/07 08:13:50;;;;;;;9.87;9.10;;;18.30;99.90;;;;;;4891961;29;20515;-80
2023/10/07 08:16:19;;;;;;;9.60;9.10;;;18.60;99.90;;;;;;4891546;29;20970;-81
2023/10/07 08:18:53;;;;;;;10.03;9.33;;;18.60;99.90;;;;;;4895834;29;20551;-83
2023/10/07 08:21:28;;;;;;;9.50;8.80;;;18.50;99.90;;;;;;4903985;29;20565;-83
2023/10/07 08:24:01;;;;;;;10.63;9.80;;;18.20;99.90;;;;;;4902522;29;20466;-82
2023/10/07 08:26:34;;;;;;;10.07;9.27;;;18.10;99.90;;;;;;4904166;29;20467;-81
2023/10/07 08:29:04;;;;;;;9.30;8.70;;;18.00;99.90;;;;;;4904943;29;21047;-84
2023/10/07 08:31:43;;;;;;;9.57;8.97;;;18.10;99.90;;;;;;4901173;29;20466;-82
2023/10/07 08:34:13;;;;;;;9.90;9.20;;;18.10;99.90;;;;;;4892764;29;20520;-82
2023/10/07 08:36:44;;;;;;;9.37;8.87;;;18.10;99.90;;;;;;4892895;29;20459;-82
2023/10/07 08:39:17;;;;;;;8.93;8.43;;;18.10;99.90;;;;;;4894348;29;20487;-82
2023/10/07 08:41:52;;;;;;;9.40;8.70;;;18.20;99.90;;;;;;4894017;29;20471;-80
2023/10/07 08:44:29;;;;;;;10.13;9.33;;;18.20;99.90;;;;;;4900718;29;20471;-80
2023/10/07 08:47:05;;;;;;;9.50;8.90;;;18.30;99.90;;;;;;4893517;29;20491;-80
2023/10/07 08:49:36;;;;;;;9.00;8.40;;;18.40;99.90;;;;;;4893309;29;20506;-81
2023/10/07 08:52:08;;;;;;;9.40;8.83;;;18.40;99.90;;;;;;4893459;29;20996;-80
2023/10/07 08:54:44;;;;;;;9.30;8.70;;;18.40;99.90;;;;;;4887780;29;20571;-80
2023/10/07 08:57:16;;;;;;;8.60;8.00;;;18.50;99.90;;;;;;4892009;29;21102;-82
2023/10/07 08:59:49;;;;;;;11.23;10.40;;;18.90;99.90;;;;;;4889722;29;20973;-83
2023/10/07 09:02:26;;;;;;;9.50;8.90;;;20.00;99.90;;;;;;4881093;29;20470;-80
2023/10/07 09:04:57;;;;;;;10.50;9.57;;;20.60;99.90;;;;;;4882911;29;20455;-80
2023/10/07 09:07:31;;;;;;;8.93;8.43;;;21.10;99.90;;;;;;4886093;29;21271;-82
2023/10/07 09:10:09;;;;;;;7.93;7.50;;;22.00;99.90;;;;;;4886834;29;20456;-80
2023/10/07 09:12:45;;;;;;;9.00;8.37;;;21.90;99.90;;;;;;4884561;29;21439;-81
2023/10/07 09:15:25;;;;;;;9.33;8.80;;;21.40;99.90;;;;;;4884872;29;21359;-80
2023/10/07 09:18:03;;;;;;;8.23;7.73;;;20.80;99.90;;;;;;4883051;29;20483;-79
2023/10/07 09:20:36;;;;;;;8.90;8.20;;;20.30;99.90;;;;;;4888802;29;20518;-80
2023/10/07 09:23:15;;;;;;;9.53;8.83;;;20.10;99.90;;;;;;4885012;29;21387;-80
2023/10/07 09:25:46;;;;;;;8.87;8.27;;;19.90;99.90;;;;;;4886285;29;20486;-79
2023/10/07 09:28:18;;;;;;;9.40;8.70;;;19.70;99.90;;;;;;4886550;29;21008;-79
2023/10/07 09:30:48;;;;;;;8.83;8.30;;;19.60;99.90;;;;;;4893097;29;20510;-80
2023/10/07 09:33:18;;;;;;;8.77;8.00;;;19.50;99.90;;;;;;4887472;29;20499;-79
2023/10/07 09:35:49;;;;;;;7.87;7.27;;;19.40;99.90;;;;;;4885512;29;20554;-79
2023/10/07 09:38:33;;;;;;;8.67;7.97;;;19.30;99.90;;;;;;4887192;29;20487;-79
2023/10/07 09:41:13;;;;;;;9.23;8.77;;;19.20;99.90;;;;;;4880919;29;20645;-80
2023/10/07 09:43:47;;;;;;;8.77;8.13;;;19.20;99.90;;;;;;4886736;29;20629;-78
2023/10/07 09:46:24;;;;;;;9.83;9.00;;;19.10;99.90;;;;;;4885484;29;21163;-80
2023/10/07 09:49:06;;;;;;;9.10;8.60;;;19.10;99.90;;;;;;4885638;29;20475;-79
2023/10/07 09:51:41;;;;;;;9.13;8.50;;;19.10;99.90;;;;;;4886518;29;20471;-82
2023/10/07 09:54:22;;;;;;;9.47;8.70;;;19.00;99.90;;;;;;4886898;29;20542;-80
2023/10/07 09:57:20;;;;;;;7.90;7.50;;;19.00;99.90;;;;;;4887800;29;20549;-79
2023/10/07 10:00:37;;;;;;;8.00;7.20;;;19.00;99.90;;;;;;4888407;29;20451;-81
2023/10/07 10:03:30;;;;;;;7.93;7.50;;;19.00;99.90;;;;;;4891618;29;20463;-79
2023/10/07 10:06:09;;;;;;;7.93;7.33;;;19.10;99.90;;;;;;4888430;29;20550;-79
2023/10/07 10:08:56;;;;;;;7.30;6.90;;;19.00;99.90;;;;;;4889984;29;20497;-80
2023/10/07 10:11:31;;;;;;;8.60;8.00;;;19.10;99.90;;;;;;4889497;29;20462;-80
2023/10/07 10:14:28;;;;;;;8.70;7.83;;;19.00;99.90;;;;;;4891339;29;20526;-79
2023/10/07 10:16:59;;;;;;;7.97;7.50;;;19.10;99.90;;;;;;4889779;29;21391;-80
2023/10/07 10:19:37;;;;;;;7.95;7.35;;;19.20;99.90;;;;;;4890471;29;21001;-82
2023/10/07 10:22:10;;;;;;;7.60;7.10;;;19.10;99.90;;;;;;4893832;29;20468;-82
2023/10/07 10:24:43;;;;;;;7.90;7.30;;;19.10;99.90;;;;;;4894251;29;20278;-82
2023/10/07 10:27:11;;;;;;;7.60;7.00;;;19.20;99.90;;;;;;4892143;29;20459;-81
2023/10/07 10:29:56;;;;;;;9.13;8.20;;;19.30;99.90;;;;;;4895226;29;20495;-82
2023/10/07 10:32:29;;;;;;;7.40;7.00;;;19.50;99.90;;;;;;4893191;29;20993;-82
2023/10/07 10:35:01;;;;;;;7.90;7.40;;;19.50;99.90;;;;;;4896357;29;20459;-81
2023/10/07 10:37:31;;;;;;;7.37;6.77;;;19.40;99.90;;;;;;4893330;29;20479;-83
2023/10/07 10:40:12;;;;;;;8.00;7.50;;;19.30;99.90;;;;;;4893920;29;21036;-84
2023/10/07 10:42:42;;;;;;;7.83;7.33;;;19.30;99.90;;;;;;4895682;29;20459;-82
2023/10/07 10:45:21;;;;;;;7.70;7.20;;;19.30;99.90;;;;;;4893686;29;20518;-82
2023/10/07 10:47:51;;;;;;;9.87;8.60;;;19.30;99.90;;;;;;4894368;29;21034;-81
2023/10/07 10:50:23;;;;;;;7.30;6.87;;;19.30;99.90;;;;;;4894694;29;20498;-82
2023/10/07 10:52:59;;;;;;;6.87;6.37;;;19.30;99.90;;;;;;4899260;29;20483;-82
2023/10/07 10:55:35;;;;;;;9.63;7.00;;;19.30;99.90;;;;;;4894872;29;20461;-84
2023/10/07 10:58:17;;;;;;;7.20;6.60;;;19.20;99.80;;;;;;4892494;29;20482;-81
2023/10/07 11:00:51;;;;;;;6.73;6.30;;;19.10;99.90;;;;;;4893218;29;20977;-81
2023/10/07 11:03:35;;;;;;;7.00;6.50;;;19.10;99.90;;;;;;4894634;29;21298;-82
2023/10/07 11:06:07;;;;;;;7.07;6.70;;;19.10;99.90;;;;;;4892826;29;20494;-82
2023/10/07 11:08:36;;;;;;;7.47;6.97;;;19.20;99.90;;;;;;4894433;29;20483;-82
2023/10/07 11:11:10;;;;;;;6.53;6.13;;;19.20;99.90;;;;;;4893561;29;20527;-82
2023/10/07 11:13:40;;;;;;;6.70;6.20;;;19.30;99.90;;;;;;4892665;29;20482;-81
2023/10/07 11:16:10;;;;;;;6.67;6.23;;;19.30;99.90;;;;;;4893079;29;20479;-80
2023/10/07 11:18:45;;;;;;;5.67;5.37;;;19.30;99.90;;;;;;4889562;29;20499;-81
2023/10/07 11:21:15;;;;;;;6.63;6.07;;;19.30;99.90;;;;;;4891016;29;20458;-81
2023/10/07 11:23:47;;;;;;;6.30;5.90;;;19.30;99.90;;;;;;4891458;29;20571;-81
2023/10/07 11:26:16;;;;;;;5.90;5.60;;;19.20;99.90;;;;;;4891676;29;20499;-81
2023/10/07 11:28:51;;;;;;;7.10;6.40;;;19.20;99.90;;;;;;4892362;29;20495;-81
2023/10/07 11:31:30;;;;;;;7.67;6.80;;;19.30;99.90;;;;;;4887101;29;21045;-83
2023/10/07 11:34:05;;;;;;;7.00;6.50;;;19.40;99.90;;;;;;4891926;29;20466;-81
2023/10/07 11:36:44;;;;;;;7.57;6.97;;;19.50;99.90;;;;;;4890129;29;20569;-82
2023/10/07 11:39:14;;;;;;;7.20;6.60;;;19.50;99.90;;;;;;4894273;29;20478;-82
2023/10/07 11:41:42;;;;;;;6.97;6.50;;;19.60;99.90;;;;;;4896044;29;20459;-81
2023/10/07 11:44:16;;;;;;;6.83;6.37;;;19.60;99.90;;;;;;4894007;29;20551;-81
2023/10/07 11:46:46;;;;;;;6.60;6.20;;;19.60;99.90;;;;;;4895392;29;21325;-83
2023/10/07 11:49:15;;;;;;;7.07;6.57;;;19.50;99.90;;;;;;4893221;29;21019;-83
2023/10/07 11:51:44;;;;;;;7.97;6.80;;;19.50;99.90;;;;;;4894170;29;20485;-82
2023/10/07 11:54:18;;;;;;;6.73;6.10;;;19.40;99.90;;;;;;4890176;29;20486;-82
2023/10/07 11:56:46;;;;;;;7.63;7.03;;;19.50;99.90;;;;;;4894573;29;21161;-82
2023/10/07 11:59:14;;;;;;;6.97;6.47;;;19.40;99.90;;;;;;4895847;29;20809;-82
2023/10/07 12:01:43;;;;;;;7.60;7.10;;;19.40;99.90;;;;;;4895037;29;20455;-81
2023/10/07 12:04:20;;;;;;;6.63;6.28;;;19.50;99.90;;;;;;4892493;29;20464;-83
2023/10/07 12:06:51;;;;;;;6.70;6.23;;;19.60;99.90;;;;;;4896895;29;20764;-83
2023/10/07 12:09:22;;;;;;;7.07;6.67;;;19.60;99.90;;;;;;4894172;29;20566;-81
2023/10/07 12:11:53;;;;;;;6.13;5.73;;;19.60;99.90;;;;;;4895893;29;21242;-82
2023/10/07 12:14:27;;;;;;;6.80;6.30;;;19.60;99.90;;;;;;4890751;29;20804;-80
2023/10/07 12:16:55;;;;;;;7.40;6.20;;;19.60;99.90;;;;;;4896676;29;20463;-82
2023/10/07 12:19:34;;;;;;;5.80;5.40;;;19.60;99.90;;;;;;4894190;29;20483;-83
2023/10/07 12:22:13;;;;;;;6.10;5.80;;;19.60;99.90;;;;;;4893962;29;20474;-81
2023/10/07 12:25:00;;;;;;;6.47;6.00;;;19.60;99.90;;;;;;4887689;29;21202;-80
2023/10/07 12:27:31;;;;;;;6.90;6.40;;;19.60;99.90;;;;;;4887611;29;20503;-83
2023/10/07 12:29:59;;;;;;;7.77;7.27;;;19.60;99.90;;;;;;4894051;29;21346;-82
2023/10/07 12:32:34;;;;;;;7.17;6.57;;;19.50;99.90;;;;;;4892398;29;20526;-82
2023/10/07 12:35:30;;;;;;;7.03;6.53;;;19.50;99.90;;;;;;4883730;29;20463;-81
2023/10/07 12:38:00;;;;;;;7.43;6.83;;;19.60;99.90;;;;;;4893722;29;20479;-81
2023/10/07 12:40:29;;;;;;;6.63;6.30;;;19.70;99.90;;;;;;4890876;29;20478;-81
2023/10/07 12:42:57;;;;;;;7.00;6.50;;;19.60;99.90;;;;;;4889202;29;20557;-80
2023/10/07 12:45:26;;;;;;;7.10;6.63;;;19.60;99.90;;;;;;4896352;23;20570;-84
2023/10/07 12:47:55;;;;;;;6.90;6.50;;;19.70;99.90;;;;;;4891057;29;20595;-84
2023/10/07 12:50:28;;;;;;;6.83;6.20;;;19.80;99.90;;;;;;4874942;29;20460;-83
2023/10/07 12:53:01;;;;;;;7.63;7.03;;;19.80;99.90;;;;;;4878983;29;20489;-81
2023/10/07 12:55:34;;;;;;;7.70;7.20;;;19.90;99.90;;;;;;4881590;29;20207;-82
2023/10/07 12:58:13;;;;;;;7.43;6.93;;;19.90;99.90;;;;;;4881564;29;20479;-83
2023/10/07 13:00:41;;;;;;;8.03;7.53;;;20.00;99.90;;;;;;4878276;29;20491;-81
2023/10/07 13:03:09;;;;;;;7.50;7.10;;;20.00;99.90;;;;;;4873082;29;20540;-81
2023/10/07 13:05:38;;;;;;;6.90;6.60;;;20.00;99.90;;;;;;4878825;29;20455;-82
2023/10/07 13:08:18;;;;;;;7.70;7.20;;;20.00;99.90;;;;;;4879688;29;20484;-82
2023/10/07 13:10:47;;;;;;;7.30;6.87;;;20.00;99.90;;;;;;4871360;29;20484;-82
2023/10/07 13:13:19;;;;;;;7.80;7.30;;;20.00;99.90;;;;;;4882507;29;20974;-82
2023/10/07 13:15:56;;;;;;;7.40;6.90;;;20.10;99.90;;;;;;4883021;29;20519;-82
2023/10/07 13:18:35;;;;;;;7.83;7.40;;;20.10;99.90;;;;;;4879309;29;20506;-83
2023/10/07 13:21:13;;;;;;;7.67;6.97;;;20.10;99.90;;;;;;4883401;29;20538;-82
2023/10/07 13:23:46;;;;;;;7.67;7.27;;;20.10;99.90;;;;;;4884397;29;21056;-82
2023/10/07 13:26:15;;;;;;;8.13;7.57;;;20.20;99.90;;;;;;4886747;29;20452;-83
2023/10/07 13:28:54;;;;;;;7.70;7.30;;;20.20;99.90;;;;;;4883592;29;20484;-82
2023/10/07 13:34:38;;;;;;;7.67;7.27;;;20.30;99.90;;;;;;4876999;29;20940;-85
2023/10/07 13:37:11;;;;;;;7.47;7.13;;;20.30;99.90;;;;;;4884734;29;20471;-82
2023/10/07 13:39:41;;;;;;;8.60;7.70;;;20.30;99.90;;;;;;4886011;29;20472;-81